sensor_id;sensor_type;location;lat;lon;timestamp;temperature;humidity
24426;DHT22;12611;44.446;26.000;2022-12-18T00:00:07;8.70;96.80
24426;DHT22;12611;44.446;26.000;2022-12-18T00:02:35;8.70;96.90
24426;DHT22;12611;44.446;26.000;2022-12-18T00:05:05;8.70;96.80
24426;DHT22;12611;44.446;26.000;2022-12-18T00:07:35;8.70;96.90
24426;DHT22;12611;44.446;26.000;2022-12-18T00:10:05;8.70;96.80
24426;DHT22;12611;44.446;26.000;2022-12-18T00:12:33;8.70;96.80
24426;DHT22;12611;44.446;26.000;2022-12-18T00:15:01;8.70;96.80
24426;DHT22;12611;44.446;26.000;2022-12-18T00:17:30;8.60;96.70
24426;DHT22;12611;44.446;26.000;2022-12-18T00:19:59;8.60;96.70
24426;DHT22;12611;44.446;26.000;2022-12-18T00:22:27;8.60;96.80
24426;DHT22;12611;44.446;26.000;2022-12-18T00:24:56;8.70;96.80
24426;DHT22;12611;44.446;26.000;2022-12-18T00:27:25;8.70;96.90
24426;DHT22;12611;44.446;26.000;2022-12-18T00:29:53;8.70;96.90
24426;DHT22;12611;44.446;26.000;2022-12-18T00:32:21;8.80;96.90
24426;DHT22;12611;44.446;26.000;2022-12-18T00:34:50;8.80;96.80
24426;DHT22;12611;44.446;26.000;2022-12-18T00:37:18;8.80;96.70
24426;DHT22;12611;44.446;26.000;2022-12-18T00:39:48;8.80;96.70
24426;DHT22;12611;44.446;26.000;2022-12-18T00:42:18;8.80;96.70
24426;DHT22;12611;44.446;26.000;2022-12-18T00:45:05;8.80;96.60
24426;DHT22;12611;44.446;26.000;2022-12-18T00:47:38;8.80;96.60
24426;DHT22;12611;44.446;26.000;2022-12-18T00:50:08;8.80;96.60
24426;DHT22;12611;44.446;26.000;2022-12-18T00:52:45;8.90;96.60
24426;DHT22;12611;44.446;26.000;2022-12-18T00:55:14;8.90;96.50
24426;DHT22;12611;44.446;26.000;2022-12-18T00:57:44;8.80;96.40
24426;DHT22;12611;44.446;26.000;2022-12-18T01:00:14;8.80;96.40
24426;DHT22;12611;44.446;26.000;2022-12-18T01:02:42;8.90;96.40
24426;DHT22;12611;44.446;26.000;2022-12-18T01:05:12;8.80;96.30
24426;DHT22;12611;44.446;26.000;2022-12-18T01:07:41;8.80;96.10
24426;DHT22;12611;44.446;26.000;2022-12-18T01:10:12;8.80;96.10
24426;DHT22;12611;44.446;26.000;2022-12-18T01:12:40;8.80;96.20
24426;DHT22;12611;44.446;26.000;2022-12-18T01:15:12;8.80;96.20
24426;DHT22;12611;44.446;26.000;2022-12-18T01:17:40;8.80;96.60
24426;DHT22;12611;44.446;26.000;2022-12-18T01:20:10;8.80;96.20
24426;DHT22;12611;44.446;26.000;2022-12-18T01:22:39;8.80;96.10
24426;DHT22;12611;44.446;26.000;2022-12-18T01:25:08;8.80;95.90
24426;DHT22;12611;44.446;26.000;2022-12-18T01:27:36;8.70;95.90
24426;DHT22;12611;44.446;26.000;2022-12-18T01:30:06;8.70;95.80
24426;DHT22;12611;44.446;26.000;2022-12-18T01:32:36;8.70;95.80
24426;DHT22;12611;44.446;26.000;2022-12-18T01:35:05;8.70;95.80
24426;DHT22;12611;44.446;26.000;2022-12-18T01:37:34;8.60;95.80
24426;DHT22;12611;44.446;26.000;2022-12-18T01:40:02;8.70;95.80
24426;DHT22;12611;44.446;26.000;2022-12-18T01:42:31;8.60;95.70
24426;DHT22;12611;44.446;26.000;2022-12-18T01:45:05;8.60;95.70
24426;DHT22;12611;44.446;26.000;2022-12-18T01:47:38;8.50;95.70
24426;DHT22;12611;44.446;26.000;2022-12-18T01:50:10;8.50;95.70
24426;DHT22;12611;44.446;26.000;2022-12-18T01:52:43;8.50;95.70
24426;DHT22;12611;44.446;26.000;2022-12-18T01:55:16;8.40;95.70
24426;DHT22;12611;44.446;26.000;2022-12-18T01:57:44;8.40;95.70
24426;DHT22;12611;44.446;26.000;2022-12-18T02:00:15;8.40;95.80
24426;DHT22;12611;44.446;26.000;2022-12-18T02:02:46;8.50;95.90
24426;DHT22;12611;44.446;26.000;2022-12-18T02:05:18;8.50;95.90
24426;DHT22;12611;44.446;26.000;2022-12-18T02:07:54;8.50;95.90
24426;DHT22;12611;44.446;26.000;2022-12-18T02:10:40;8.50;95.80
24426;DHT22;12611;44.446;26.000;2022-12-18T02:13:14;8.50;95.80
24426;DHT22;12611;44.446;26.000;2022-12-18T02:15:48;8.40;95.80
24426;DHT22;12611;44.446;26.000;2022-12-18T02:18:23;8.40;95.70
24426;DHT22;12611;44.446;26.000;2022-12-18T02:20:55;8.40;95.70
24426;DHT22;12611;44.446;26.000;2022-12-18T02:23:39;8.40;95.70
24426;DHT22;12611;44.446;26.000;2022-12-18T02:26:20;8.40;95.70
24426;DHT22;12611;44.446;26.000;2022-12-18T02:28:53;8.40;95.70
24426;DHT22;12611;44.446;26.000;2022-12-18T02:31:25;8.40;95.60
24426;DHT22;12611;44.446;26.000;2022-12-18T02:34:00;8.40;95.70
24426;DHT22;12611;44.446;26.000;2022-12-18T02:36:31;8.30;96.00
24426;DHT22;12611;44.446;26.000;2022-12-18T02:39:02;8.40;95.70
24426;DHT22;12611;44.446;26.000;2022-12-18T02:41:32;8.40;95.70
24426;DHT22;12611;44.446;26.000;2022-12-18T02:44:06;8.40;95.70
24426;DHT22;12611;44.446;26.000;2022-12-18T02:46:37;8.40;95.70
24426;DHT22;12611;44.446;26.000;2022-12-18T02:49:17;8.40;95.70
24426;DHT22;12611;44.446;26.000;2022-12-18T02:51:52;8.40;95.70
24426;DHT22;12611;44.446;26.000;2022-12-18T02:54:35;8.40;95.70
24426;DHT22;12611;44.446;26.000;2022-12-18T02:57:13;8.50;95.60
24426;DHT22;12611;44.446;26.000;2022-12-18T02:59:49;8.50;95.70
24426;DHT22;12611;44.446;26.000;2022-12-18T03:02:24;8.50;95.70
24426;DHT22;12611;44.446;26.000;2022-12-18T03:04:59;8.40;95.70
24426;DHT22;12611;44.446;26.000;2022-12-18T03:07:36;8.40;95.70
24426;DHT22;12611;44.446;26.000;2022-12-18T03:10:07;8.50;95.80
24426;DHT22;12611;44.446;26.000;2022-12-18T03:12:41;8.50;95.70
24426;DHT22;12611;44.446;26.000;2022-12-18T03:15:16;8.40;95.50
24426;DHT22;12611;44.446;26.000;2022-12-18T03:17:49;8.40;95.60
24426;DHT22;12611;44.446;26.000;2022-12-18T03:20:20;8.30;95.60
24426;DHT22;12611;44.446;26.000;2022-12-18T03:22:53;8.30;95.70
24426;DHT22;12611;44.446;26.000;2022-12-18T03:25:25;8.30;95.80
24426;DHT22;12611;44.446;26.000;2022-12-18T03:27:58;8.40;95.90
24426;DHT22;12611;44.446;26.000;2022-12-18T03:30:29;8.40;95.90
24426;DHT22;12611;44.446;26.000;2022-12-18T03:33:01;8.40;96.00
24426;DHT22;12611;44.446;26.000;2022-12-18T03:35:35;8.40;96.10
24426;DHT22;12611;44.446;26.000;2022-12-18T03:38:07;8.40;96.10
24426;DHT22;12611;44.446;26.000;2022-12-18T03:40:43;8.40;96.10
24426;DHT22;12611;44.446;26.000;2022-12-18T03:43:19;8.40;96.20
24426;DHT22;12611;44.446;26.000;2022-12-18T03:45:52;8.40;96.20
24426;DHT22;12611;44.446;26.000;2022-12-18T03:48:27;8.40;96.30
24426;DHT22;12611;44.446;26.000;2022-12-18T03:51:00;8.40;96.60
24426;DHT22;12611;44.446;26.000;2022-12-18T03:53:36;8.40;96.60
24426;DHT22;12611;44.446;26.000;2022-12-18T03:56:09;8.40;96.60
24426;DHT22;12611;44.446;26.000;2022-12-18T03:58:40;8.40;96.60
24426;DHT22;12611;44.446;26.000;2022-12-18T04:01:12;8.40;96.50
24426;DHT22;12611;44.446;26.000;2022-12-18T04:03:42;8.40;96.50
24426;DHT22;12611;44.446;26.000;2022-12-18T04:06:12;8.40;96.70
24426;DHT22;12611;44.446;26.000;2022-12-18T04:08:41;8.40;96.60
24426;DHT22;12611;44.446;26.000;2022-12-18T04:11:10;8.40;96.60
24426;DHT22;12611;44.446;26.000;2022-12-18T04:13:42;8.40;96.60
24426;DHT22;12611;44.446;26.000;2022-12-18T04:16:10;8.40;96.60
24426;DHT22;12611;44.446;26.000;2022-12-18T04:18:39;8.50;96.90
24426;DHT22;12611;44.446;26.000;2022-12-18T04:21:07;8.50;96.90
24426;DHT22;12611;44.446;26.000;2022-12-18T04:23:36;8.60;96.90
24426;DHT22;12611;44.446;26.000;2022-12-18T04:26:05;8.60;96.80
24426;DHT22;12611;44.446;26.000;2022-12-18T04:28:33;8.60;96.80
24426;DHT22;12611;44.446;26.000;2022-12-18T04:31:03;8.60;96.70
24426;DHT22;12611;44.446;26.000;2022-12-18T04:33:31;8.70;96.70
24426;DHT22;12611;44.446;26.000;2022-12-18T04:35:59;8.70;96.70
24426;DHT22;12611;44.446;26.000;2022-12-18T04:38:28;8.70;96.70
24426;DHT22;12611;44.446;26.000;2022-12-18T04:40:56;8.80;96.70
24426;DHT22;12611;44.446;26.000;2022-12-18T04:43:24;8.80;96.60
24426;DHT22;12611;44.446;26.000;2022-12-18T04:45:53;8.80;96.50
24426;DHT22;12611;44.446;26.000;2022-12-18T04:48:22;8.80;96.40
24426;DHT22;12611;44.446;26.000;2022-12-18T04:50:51;8.80;96.40
24426;DHT22;12611;44.446;26.000;2022-12-18T04:53:19;8.80;96.40
24426;DHT22;12611;44.446;26.000;2022-12-18T04:55:47;8.90;96.40
24426;DHT22;12611;44.446;26.000;2022-12-18T04:58:16;8.90;96.40
24426;DHT22;12611;44.446;26.000;2022-12-18T05:00:44;8.90;96.40
24426;DHT22;12611;44.446;26.000;2022-12-18T05:03:13;8.90;96.30
24426;DHT22;12611;44.446;26.000;2022-12-18T05:05:42;8.90;96.30
24426;DHT22;12611;44.446;26.000;2022-12-18T05:08:11;8.90;96.30
24426;DHT22;12611;44.446;26.000;2022-12-18T05:10:39;8.90;96.30
24426;DHT22;12611;44.446;26.000;2022-12-18T05:13:07;8.90;96.30
24426;DHT22;12611;44.446;26.000;2022-12-18T05:15:35;8.90;96.30
24426;DHT22;12611;44.446;26.000;2022-12-18T05:18:04;8.90;96.30
24426;DHT22;12611;44.446;26.000;2022-12-18T05:20:32;9.00;96.40
24426;DHT22;12611;44.446;26.000;2022-12-18T05:23:02;9.00;96.30
24426;DHT22;12611;44.446;26.000;2022-12-18T05:25:30;9.00;96.30
24426;DHT22;12611;44.446;26.000;2022-12-18T05:27:58;9.00;96.30
24426;DHT22;12611;44.446;26.000;2022-12-18T05:30:27;9.00;96.40
24426;DHT22;12611;44.446;26.000;2022-12-18T05:32:55;9.00;96.40
24426;DHT22;12611;44.446;26.000;2022-12-18T05:35:23;9.00;96.30
24426;DHT22;12611;44.446;26.000;2022-12-18T05:37:52;9.00;96.30
24426;DHT22;12611;44.446;26.000;2022-12-18T05:40:21;9.00;96.30
24426;DHT22;12611;44.446;26.000;2022-12-18T05:42:49;9.10;96.30
24426;DHT22;12611;44.446;26.000;2022-12-18T05:45:18;9.00;96.30
24426;DHT22;12611;44.446;26.000;2022-12-18T05:47:47;9.00;96.30
24426;DHT22;12611;44.446;26.000;2022-12-18T05:50:15;9.10;96.30
24426;DHT22;12611;44.446;26.000;2022-12-18T05:52:43;9.10;96.30
24426;DHT22;12611;44.446;26.000;2022-12-18T05:55:12;9.10;96.50
24426;DHT22;12611;44.446;26.000;2022-12-18T05:57:42;9.10;96.50
24426;DHT22;12611;44.446;26.000;2022-12-18T06:00:11;9.00;96.40
24426;DHT22;12611;44.446;26.000;2022-12-18T06:02:40;9.10;96.40
24426;DHT22;12611;44.446;26.000;2022-12-18T06:05:08;9.10;96.40
24426;DHT22;12611;44.446;26.000;2022-12-18T06:07:37;9.10;96.50
24426;DHT22;12611;44.446;26.000;2022-12-18T06:10:06;9.10;96.40
24426;DHT22;12611;44.446;26.000;2022-12-18T06:12:34;9.10;96.30
24426;DHT22;12611;44.446;26.000;2022-12-18T06:15:05;9.10;96.30
24426;DHT22;12611;44.446;26.000;2022-12-18T06:17:34;9.10;96.20
24426;DHT22;12611;44.446;26.000;2022-12-18T06:20:03;9.10;96.00
24426;DHT22;12611;44.446;26.000;2022-12-18T06:22:33;9.00;96.00
24426;DHT22;12611;44.446;26.000;2022-12-18T06:25:01;9.00;96.00
24426;DHT22;12611;44.446;26.000;2022-12-18T06:27:30;9.00;95.90
24426;DHT22;12611;44.446;26.000;2022-12-18T06:29:58;9.00;95.90
24426;DHT22;12611;44.446;26.000;2022-12-18T06:32:28;9.00;96.00
24426;DHT22;12611;44.446;26.000;2022-12-18T06:34:56;9.00;96.00
24426;DHT22;12611;44.446;26.000;2022-12-18T06:37:24;9.00;96.00
24426;DHT22;12611;44.446;26.000;2022-12-18T06:39:53;9.00;96.00
24426;DHT22;12611;44.446;26.000;2022-12-18T06:42:24;9.00;96.00
24426;DHT22;12611;44.446;26.000;2022-12-18T06:44:54;8.90;95.90
24426;DHT22;12611;44.446;26.000;2022-12-18T06:47:23;8.90;95.90
24426;DHT22;12611;44.446;26.000;2022-12-18T06:49:53;8.90;95.90
24426;DHT22;12611;44.446;26.000;2022-12-18T06:52:21;8.90;96.00
24426;DHT22;12611;44.446;26.000;2022-12-18T06:54:50;8.90;96.00
24426;DHT22;12611;44.446;26.000;2022-12-18T06:57:18;8.80;96.00
24426;DHT22;12611;44.446;26.000;2022-12-18T06:59:46;8.80;96.00
24426;DHT22;12611;44.446;26.000;2022-12-18T07:02:14;8.80;96.00
24426;DHT22;12611;44.446;26.000;2022-12-18T07:04:43;8.80;96.00
24426;DHT22;12611;44.446;26.000;2022-12-18T07:07:13;8.80;96.00
24426;DHT22;12611;44.446;26.000;2022-12-18T07:09:41;8.80;96.00
24426;DHT22;12611;44.446;26.000;2022-12-18T07:12:09;8.80;96.00
24426;DHT22;12611;44.446;26.000;2022-12-18T07:14:38;8.80;96.00
24426;DHT22;12611;44.446;26.000;2022-12-18T07:17:06;8.70;96.00
24426;DHT22;12611;44.446;26.000;2022-12-18T07:19:34;8.80;96.10
24426;DHT22;12611;44.446;26.000;2022-12-18T07:22:04;8.70;96.10
24426;DHT22;12611;44.446;26.000;2022-12-18T07:24:34;8.70;96.00
24426;DHT22;12611;44.446;26.000;2022-12-18T07:27:02;8.70;96.00
24426;DHT22;12611;44.446;26.000;2022-12-18T07:29:33;8.70;96.00
24426;DHT22;12611;44.446;26.000;2022-12-18T07:32:02;8.70;96.00
24426;DHT22;12611;44.446;26.000;2022-12-18T07:34:30;8.70;96.10
24426;DHT22;12611;44.446;26.000;2022-12-18T07:36:58;8.70;96.20
24426;DHT22;12611;44.446;26.000;2022-12-18T07:39:27;8.70;96.20
24426;DHT22;12611;44.446;26.000;2022-12-18T07:41:56;8.70;96.20
24426;DHT22;12611;44.446;26.000;2022-12-18T07:44:42;8.60;96.00
24426;DHT22;12611;44.446;26.000;2022-12-18T07:47:10;8.60;95.90
24426;DHT22;12611;44.446;26.000;2022-12-18T07:49:39;8.60;95.90
24426;DHT22;12611;44.446;26.000;2022-12-18T07:52:07;8.60;95.90
24426;DHT22;12611;44.446;26.000;2022-12-18T07:54:36;8.60;95.90
24426;DHT22;12611;44.446;26.000;2022-12-18T07:57:06;8.60;96.00
24426;DHT22;12611;44.446;26.000;2022-12-18T07:59:54;8.60;96.00
24426;DHT22;12611;44.446;26.000;2022-12-18T08:02:22;8.60;96.00
24426;DHT22;12611;44.446;26.000;2022-12-18T08:04:51;8.50;95.90
24426;DHT22;12611;44.446;26.000;2022-12-18T08:07:19;8.50;95.90
24426;DHT22;12611;44.446;26.000;2022-12-18T08:09:47;8.50;96.00
24426;DHT22;12611;44.446;26.000;2022-12-18T08:12:17;8.50;96.00
24426;DHT22;12611;44.446;26.000;2022-12-18T08:14:45;8.50;96.10
24426;DHT22;12611;44.446;26.000;2022-12-18T08:17:13;8.50;96.10
24426;DHT22;12611;44.446;26.000;2022-12-18T08:19:42;8.50;96.20
24426;DHT22;12611;44.446;26.000;2022-12-18T08:22:10;8.50;96.20
24426;DHT22;12611;44.446;26.000;2022-12-18T08:24:39;8.50;96.20
24426;DHT22;12611;44.446;26.000;2022-12-18T08:27:07;8.50;96.10
24426;DHT22;12611;44.446;26.000;2022-12-18T08:29:57;8.50;96.10
24426;DHT22;12611;44.446;26.000;2022-12-18T08:32:26;8.50;96.20
24426;DHT22;12611;44.446;26.000;2022-12-18T08:34:55;8.50;96.20
24426;DHT22;12611;44.446;26.000;2022-12-18T08:37:23;8.50;96.20
24426;DHT22;12611;44.446;26.000;2022-12-18T08:39:51;8.50;96.30
24426;DHT22;12611;44.446;26.000;2022-12-18T08:42:19;8.60;96.30
24426;DHT22;12611;44.446;26.000;2022-12-18T08:45:08;8.60;96.30
24426;DHT22;12611;44.446;26.000;2022-12-18T08:47:36;8.60;96.30
24426;DHT22;12611;44.446;26.000;2022-12-18T08:50:05;8.60;96.40
24426;DHT22;12611;44.446;26.000;2022-12-18T08:52:33;8.70;96.40
24426;DHT22;12611;44.446;26.000;2022-12-18T08:55:02;8.70;96.50
24426;DHT22;12611;44.446;26.000;2022-12-18T08:57:30;8.70;96.50
24426;DHT22;12611;44.446;26.000;2022-12-18T08:59:58;8.80;96.50
24426;DHT22;12611;44.446;26.000;2022-12-18T09:02:28;8.80;96.40
24426;DHT22;12611;44.446;26.000;2022-12-18T09:04:57;8.80;96.40
24426;DHT22;12611;44.446;26.000;2022-12-18T09:07:25;8.90;96.50
24426;DHT22;12611;44.446;26.000;2022-12-18T09:09:54;8.90;96.50
24426;DHT22;12611;44.446;26.000;2022-12-18T09:12:22;8.90;96.60
24426;DHT22;12611;44.446;26.000;2022-12-18T09:14:53;9.00;96.80
24426;DHT22;12611;44.446;26.000;2022-12-18T09:17:21;9.00;96.40
24426;DHT22;12611;44.446;26.000;2022-12-18T09:19:51;9.10;96.50
24426;DHT22;12611;44.446;26.000;2022-12-18T09:22:19;9.10;96.10
24426;DHT22;12611;44.446;26.000;2022-12-18T09:24:49;9.10;95.60
24426;DHT22;12611;44.446;26.000;2022-12-18T09:27:17;9.10;95.10
24426;DHT22;12611;44.446;26.000;2022-12-18T09:29:45;9.10;95.10
24426;DHT22;12611;44.446;26.000;2022-12-18T09:32:14;9.20;95.20
24426;DHT22;12611;44.446;26.000;2022-12-18T09:34:48;9.20;94.90
24426;DHT22;12611;44.446;26.000;2022-12-18T09:37:18;9.20;95.00
24426;DHT22;12611;44.446;26.000;2022-12-18T09:39:46;9.30;94.80
24426;DHT22;12611;44.446;26.000;2022-12-18T09:42:20;9.30;94.80
24426;DHT22;12611;44.446;26.000;2022-12-18T09:44:50;9.20;94.30
24426;DHT22;12611;44.446;26.000;2022-12-18T09:47:23;9.30;94.40
24426;DHT22;12611;44.446;26.000;2022-12-18T09:49:55;9.30;93.70
24426;DHT22;12611;44.446;26.000;2022-12-18T09:52:28;9.30;92.90
24426;DHT22;12611;44.446;26.000;2022-12-18T09:55:03;9.30;92.90
24426;DHT22;12611;44.446;26.000;2022-12-18T09:57:33;9.30;93.00
24426;DHT22;12611;44.446;26.000;2022-12-18T10:00:11;9.30;92.80
24426;DHT22;12611;44.446;26.000;2022-12-18T10:02:43;9.30;92.90
24426;DHT22;12611;44.446;26.000;2022-12-18T10:05:13;9.30;92.60
24426;DHT22;12611;44.446;26.000;2022-12-18T10:07:49;9.40;92.60
24426;DHT22;12611;44.446;26.000;2022-12-18T10:10:32;9.30;92.20
24426;DHT22;12611;44.446;26.000;2022-12-18T10:13:11;9.30;91.90
24426;DHT22;12611;44.446;26.000;2022-12-18T10:16:00;9.30;91.90
24426;DHT22;12611;44.446;26.000;2022-12-18T10:18:56;9.30;91.60
24426;DHT22;12611;44.446;26.000;2022-12-18T10:21:33;9.20;91.40
24426;DHT22;12611;44.446;26.000;2022-12-18T10:24:13;9.20;91.10
24426;DHT22;12611;44.446;26.000;2022-12-18T10:26:45;9.20;91.00
24426;DHT22;12611;44.446;26.000;2022-12-18T10:29:15;9.10;90.90
24426;DHT22;12611;44.446;26.000;2022-12-18T10:31:44;9.10;91.00
24426;DHT22;12611;44.446;26.000;2022-12-18T10:34:15;9.10;91.20
24426;DHT22;12611;44.446;26.000;2022-12-18T10:36:44;9.00;91.00
24426;DHT22;12611;44.446;26.000;2022-12-18T10:39:19;8.90;91.00
24426;DHT22;12611;44.446;26.000;2022-12-18T10:41:51;8.90;91.20
24426;DHT22;12611;44.446;26.000;2022-12-18T10:44:27;8.90;91.30
24426;DHT22;12611;44.446;26.000;2022-12-18T10:47:04;8.80;91.30
24426;DHT22;12611;44.446;26.000;2022-12-18T10:49:42;8.80;91.50
24426;DHT22;12611;44.446;26.000;2022-12-18T10:52:17;8.80;91.50
24426;DHT22;12611;44.446;26.000;2022-12-18T10:54:50;8.80;91.50
24426;DHT22;12611;44.446;26.000;2022-12-18T10:57:34;8.80;91.30
24426;DHT22;12611;44.446;26.000;2022-12-18T11:00:23;8.70;91.10
24426;DHT22;12611;44.446;26.000;2022-12-18T11:02:52;8.70;91.40
24426;DHT22;12611;44.446;26.000;2022-12-18T11:05:28;8.70;91.40
24426;DHT22;12611;44.446;26.000;2022-12-18T11:07:58;8.60;91.30
24426;DHT22;12611;44.446;26.000;2022-12-18T11:10:30;8.70;91.70
24426;DHT22;12611;44.446;26.000;2022-12-18T11:13:10;8.60;91.40
24426;DHT22;12611;44.446;26.000;2022-12-18T11:15:40;8.60;91.50
24426;DHT22;12611;44.446;26.000;2022-12-18T11:18:17;8.60;91.50
24426;DHT22;12611;44.446;26.000;2022-12-18T11:20:54;8.60;91.40
24426;DHT22;12611;44.446;26.000;2022-12-18T11:23:26;8.60;91.10
24426;DHT22;12611;44.446;26.000;2022-12-18T11:25:58;8.50;91.20
24426;DHT22;12611;44.446;26.000;2022-12-18T11:28:34;8.50;91.40
24426;DHT22;12611;44.446;26.000;2022-12-18T11:31:25;8.50;91.40
24426;DHT22;12611;44.446;26.000;2022-12-18T11:34:01;8.40;91.50
24426;DHT22;12611;44.446;26.000;2022-12-18T11:36:51;8.50;91.30
24426;DHT22;12611;44.446;26.000;2022-12-18T11:39:24;8.50;91.20
24426;DHT22;12611;44.446;26.000;2022-12-18T11:42:01;8.40;91.20
24426;DHT22;12611;44.446;26.000;2022-12-18T11:44:44;8.50;91.40
24426;DHT22;12611;44.446;26.000;2022-12-18T11:47:21;8.40;91.20
24426;DHT22;12611;44.446;26.000;2022-12-18T11:49:52;8.50;91.20
24426;DHT22;12611;44.446;26.000;2022-12-18T11:52:26;8.40;91.30
24426;DHT22;12611;44.446;26.000;2022-12-18T11:54:56;8.40;91.30
24426;DHT22;12611;44.446;26.000;2022-12-18T11:57:35;8.40;91.30
24426;DHT22;12611;44.446;26.000;2022-12-18T12:00:12;8.40;91.30
24426;DHT22;12611;44.446;26.000;2022-12-18T12:02:56;8.40;91.40
24426;DHT22;12611;44.446;26.000;2022-12-18T12:05:39;8.40;91.50
24426;DHT22;12611;44.446;26.000;2022-12-18T12:08:15;8.50;91.50
24426;DHT22;12611;44.446;26.000;2022-12-18T12:10:54;8.50;91.60
24426;DHT22;12611;44.446;26.000;2022-12-18T12:13:36;8.50;91.50
24426;DHT22;12611;44.446;26.000;2022-12-18T12:16:15;8.50;91.40
24426;DHT22;12611;44.446;26.000;2022-12-18T12:19:02;8.50;91.70
24426;DHT22;12611;44.446;26.000;2022-12-18T12:21:39;8.50;91.70
24426;DHT22;12611;44.446;26.000;2022-12-18T12:24:24;8.50;91.50
24426;DHT22;12611;44.446;26.000;2022-12-18T12:27:01;8.50;91.20
24426;DHT22;12611;44.446;26.000;2022-12-18T12:29:43;8.50;91.00
24426;DHT22;12611;44.446;26.000;2022-12-18T12:32:25;8.50;91.00
24426;DHT22;12611;44.446;26.000;2022-12-18T12:35:07;8.50;91.10
24426;DHT22;12611;44.446;26.000;2022-12-18T12:37:45;8.40;91.30
24426;DHT22;12611;44.446;26.000;2022-12-18T12:40:26;8.40;91.00
24426;DHT22;12611;44.446;26.000;2022-12-18T12:43:22;8.40;91.00
24426;DHT22;12611;44.446;26.000;2022-12-18T12:45:56;8.30;90.80
24426;DHT22;12611;44.446;26.000;2022-12-18T12:48:36;8.40;91.00
24426;DHT22;12611;44.446;26.000;2022-12-18T12:51:11;8.40;91.10
24426;DHT22;12611;44.446;26.000;2022-12-18T12:53:41;8.40;91.00
24426;DHT22;12611;44.446;26.000;2022-12-18T12:56:13;8.30;90.90
24426;DHT22;12611;44.446;26.000;2022-12-18T12:58:49;8.20;90.80
24426;DHT22;12611;44.446;26.000;2022-12-18T13:01:33;8.30;91.00
24426;DHT22;12611;44.446;26.000;2022-12-18T13:04:14;8.30;91.10
24426;DHT22;12611;44.446;26.000;2022-12-18T13:06:52;8.20;91.20
24426;DHT22;12611;44.446;26.000;2022-12-18T13:09:22;8.30;91.30
24426;DHT22;12611;44.446;26.000;2022-12-18T13:11:51;8.20;91.40
24426;DHT22;12611;44.446;26.000;2022-12-18T13:14:38;8.20;91.40
24426;DHT22;12611;44.446;26.000;2022-12-18T13:17:26;8.20;91.30
24426;DHT22;12611;44.446;26.000;2022-12-18T13:20:08;8.20;91.20
24426;DHT22;12611;44.446;26.000;2022-12-18T13:22:40;8.20;91.30
24426;DHT22;12611;44.446;26.000;2022-12-18T13:25:31;8.20;91.30
24426;DHT22;12611;44.446;26.000;2022-12-18T13:28:10;8.20;91.40
24426;DHT22;12611;44.446;26.000;2022-12-18T13:30:48;8.20;91.40
24426;DHT22;12611;44.446;26.000;2022-12-18T13:33:48;8.20;91.40
24426;DHT22;12611;44.446;26.000;2022-12-18T13:36:37;8.20;91.30
24426;DHT22;12611;44.446;26.000;2022-12-18T13:39:32;8.10;91.50
24426;DHT22;12611;44.446;26.000;2022-12-18T13:45:41;8.00;91.40
24426;DHT22;12611;44.446;26.000;2022-12-18T13:48:31;8.00;91.50
24426;DHT22;12611;44.446;26.000;2022-12-18T13:51:03;8.00;91.50
24426;DHT22;12611;44.446;26.000;2022-12-18T13:53:39;8.00;91.60
24426;DHT22;12611;44.446;26.000;2022-12-18T13:56:15;8.00;91.70
24426;DHT22;12611;44.446;26.000;2022-12-18T13:59:13;8.00;91.70
24426;DHT22;12611;44.446;26.000;2022-12-18T14:01:44;7.90;91.70
24426;DHT22;12611;44.446;26.000;2022-12-18T14:04:20;7.90;91.70
24426;DHT22;12611;44.446;26.000;2022-12-18T14:06:52;7.90;91.80
24426;DHT22;12611;44.446;26.000;2022-12-18T14:09:24;8.00;91.80
24426;DHT22;12611;44.446;26.000;2022-12-18T14:11:54;7.90;91.80
24426;DHT22;12611;44.446;26.000;2022-12-18T14:14:45;7.90;92.00
24426;DHT22;12611;44.446;26.000;2022-12-18T14:17:18;7.90;92.00
24426;DHT22;12611;44.446;26.000;2022-12-18T14:19:49;7.90;91.90
24426;DHT22;12611;44.446;26.000;2022-12-18T14:22:21;7.90;92.00
24426;DHT22;12611;44.446;26.000;2022-12-18T14:25:12;8.00;92.00
24426;DHT22;12611;44.446;26.000;2022-12-18T14:27:43;7.90;92.10
24426;DHT22;12611;44.446;26.000;2022-12-18T14:30:28;7.90;92.00
24426;DHT22;12611;44.446;26.000;2022-12-18T14:33:02;7.90;92.00
24426;DHT22;12611;44.446;26.000;2022-12-18T14:35:30;7.90;92.00
24426;DHT22;12611;44.446;26.000;2022-12-18T14:38:19;8.00;92.10
24426;DHT22;12611;44.446;26.000;2022-12-18T14:40:52;8.00;92.10
24426;DHT22;12611;44.446;26.000;2022-12-18T14:43:21;8.00;92.10
24426;DHT22;12611;44.446;26.000;2022-12-18T14:45:50;7.90;92.10
24426;DHT22;12611;44.446;26.000;2022-12-18T14:48:20;7.90;92.10
24426;DHT22;12611;44.446;26.000;2022-12-18T14:50:59;7.90;92.00
24426;DHT22;12611;44.446;26.000;2022-12-18T14:53:35;7.90;92.00
24426;DHT22;12611;44.446;26.000;2022-12-18T14:56:14;8.00;92.10
24426;DHT22;12611;44.446;26.000;2022-12-18T14:58:47;8.00;92.10
24426;DHT22;12611;44.446;26.000;2022-12-18T15:01:25;7.90;92.10
24426;DHT22;12611;44.446;26.000;2022-12-18T15:03:55;7.90;92.30
24426;DHT22;12611;44.446;26.000;2022-12-18T15:06:33;7.90;92.20
24426;DHT22;12611;44.446;26.000;2022-12-18T15:09:05;7.90;92.20
24426;DHT22;12611;44.446;26.000;2022-12-18T15:11:48;7.90;92.10
24426;DHT22;12611;44.446;26.000;2022-12-18T15:14:37;7.80;92.20
24426;DHT22;12611;44.446;26.000;2022-12-18T15:17:16;7.80;92.20
24426;DHT22;12611;44.446;26.000;2022-12-18T15:19:47;7.80;92.20
24426;DHT22;12611;44.446;26.000;2022-12-18T15:22:20;7.80;92.20
24426;DHT22;12611;44.446;26.000;2022-12-18T15:27:49;7.90;92.40
24426;DHT22;12611;44.446;26.000;2022-12-18T15:30:21;7.90;92.40
24426;DHT22;12611;44.446;26.000;2022-12-18T15:33:17;7.90;92.30
24426;DHT22;12611;44.446;26.000;2022-12-18T15:35:56;7.90;92.20
24426;DHT22;12611;44.446;26.000;2022-12-18T15:38:25;7.90;92.40
24426;DHT22;12611;44.446;26.000;2022-12-18T15:40:53;7.90;92.30
24426;DHT22;12611;44.446;26.000;2022-12-18T15:43:24;7.90;92.30
24426;DHT22;12611;44.446;26.000;2022-12-18T15:46:01;7.80;92.20
24426;DHT22;12611;44.446;26.000;2022-12-18T15:48:31;7.90;92.20
24426;DHT22;12611;44.446;26.000;2022-12-18T15:51:00;7.90;92.20
24426;DHT22;12611;44.446;26.000;2022-12-18T15:53:32;7.90;92.20
24426;DHT22;12611;44.446;26.000;2022-12-18T15:56:01;7.90;92.30
24426;DHT22;12611;44.446;26.000;2022-12-18T15:58:51;7.90;92.30
24426;DHT22;12611;44.446;26.000;2022-12-18T16:01:20;7.90;92.30
24426;DHT22;12611;44.446;26.000;2022-12-18T16:03:50;7.90;92.30
24426;DHT22;12611;44.446;26.000;2022-12-18T16:06:19;7.90;92.40
24426;DHT22;12611;44.446;26.000;2022-12-18T16:08:47;7.90;92.30
24426;DHT22;12611;44.446;26.000;2022-12-18T16:11:22;7.90;92.30